sensor_id;sensor_type;location;lat;lon;timestamp;pressure;altitude;pressure_sealevel;temperature;humidity
20350;BME280;10332;50.208;18.988;2023-08-12T00:00:04;98604.63;;;20.47;67.59
20350;BME280;10332;50.208;18.988;2023-08-12T00:03:01;98596.56;;;20.39;67.70
20350;BME280;10332;50.208;18.988;2023-08-12T00:05:28;98600.84;;;20.32;67.66
20350;BME280;10332;50.208;18.988;2023-08-12T00:07:57;98599.47;;;20.28;67.70
20350;BME280;10332;50.208;18.988;2023-08-12T00:10:24;98600.94;;;20.22;67.82
20350;BME280;10332;50.208;18.988;2023-08-12T00:12:52;98602.03;;;20.20;67.79
20350;BME280;10332;50.208;18.988;2023-08-12T00:15:19;98604.03;;;20.18;67.95
20350;BME280;10332;50.208;18.988;2023-08-12T00:17:47;98601.13;;;20.11;68.40
20350;BME280;10332;50.208;18.988;2023-08-12T00:20:14;98601.91;;;20.03;68.75
20350;BME280;10332;50.208;18.988;2023-08-12T00:22:42;98599.88;;;19.97;69.07
20350;BME280;10332;50.208;18.988;2023-08-12T00:25:09;98607.16;;;19.95;68.92
20350;BME280;10332;50.208;18.988;2023-08-12T00:27:37;98596.16;;;19.90;69.14
20350;BME280;10332;50.208;18.988;2023-08-12T00:30:06;98599.78;;;19.89;68.71
20350;BME280;10332;50.208;18.988;2023-08-12T00:32:34;98599.78;;;19.89;69.10
20350;BME280;10332;50.208;18.988;2023-08-12T00:35:01;98605.75;;;19.91;69.09
20350;BME280;10332;50.208;18.988;2023-08-12T00:37:30;98603.44;;;19.88;68.80
20350;BME280;10332;50.208;18.988;2023-08-12T00:39:57;98594.94;;;19.84;69.29
20350;BME280;10332;50.208;18.988;2023-08-12T00:42:25;98591.59;;;19.82;69.53
20350;BME280;10332;50.208;18.988;2023-08-12T00:44:52;98594.56;;;19.79;69.15
20350;BME280;10332;50.208;18.988;2023-08-12T00:47:21;98607.13;;;19.77;69.29
20350;BME280;10332;50.208;18.988;2023-08-12T00:49:50;98600.59;;;19.72;69.58
20350;BME280;10332;50.208;18.988;2023-08-12T00:52:18;98598.84;;;19.63;70.20
20350;BME280;10332;50.208;18.988;2023-08-12T00:54:46;98596.63;;;19.58;70.03
20350;BME280;10332;50.208;18.988;2023-08-12T00:57:13;98594.25;;;19.55;70.47
20350;BME280;10332;50.208;18.988;2023-08-12T00:59:43;98588.00;;;19.56;69.90
20350;BME280;10332;50.208;18.988;2023-08-12T01:02:12;98587.16;;;19.55;70.18
20350;BME280;10332;50.208;18.988;2023-08-12T01:04:40;98585.78;;;19.51;70.36
20350;BME280;10332;50.208;18.988;2023-08-12T01:07:08;98587.47;;;19.52;70.05
20350;BME280;10332;50.208;18.988;2023-08-12T01:09:36;98590.09;;;19.52;70.60
20350;BME280;10332;50.208;18.988;2023-08-12T01:12:41;98588.34;;;19.43;70.75
20350;BME280;10332;50.208;18.988;2023-08-12T01:15:17;98585.56;;;19.45;70.26
20350;BME280;10332;50.208;18.988;2023-08-12T01:17:50;98590.00;;;19.44;70.88
20350;BME280;10332;50.208;18.988;2023-08-12T01:20:24;98586.97;;;19.39;70.75
20350;BME280;10332;50.208;18.988;2023-08-12T01:23:06;98592.56;;;19.36;70.55
20350;BME280;10332;50.208;18.988;2023-08-12T01:25:34;98589.25;;;19.34;70.82
20350;BME280;10332;50.208;18.988;2023-08-12T01:28:02;98589.50;;;19.31;70.99
20350;BME280;10332;50.208;18.988;2023-08-12T01:30:29;98596.09;;;19.27;71.03
20350;BME280;10332;50.208;18.988;2023-08-12T01:33:02;98594.31;;;19.18;71.17
20350;BME280;10332;50.208;18.988;2023-08-12T01:35:47;98598.53;;;19.11;71.45
20350;BME280;10332;50.208;18.988;2023-08-12T01:38:19;98594.91;;;19.12;71.38
20350;BME280;10332;50.208;18.988;2023-08-12T01:40:48;98596.19;;;19.08;71.52
20350;BME280;10332;50.208;18.988;2023-08-12T01:43:16;98596.47;;;19.05;71.68
20350;BME280;10332;50.208;18.988;2023-08-12T01:45:44;98600.09;;;19.04;71.79
20350;BME280;10332;50.208;18.988;2023-08-12T01:48:12;98607.34;;;19.02;71.54
20350;BME280;10332;50.208;18.988;2023-08-12T01:50:39;98601.06;;;19.03;71.63
20350;BME280;10332;50.208;18.988;2023-08-12T01:53:07;98615.97;;;19.04;71.53
20350;BME280;10332;50.208;18.988;2023-08-12T01:55:34;98612.78;;;19.00;72.36
20350;BME280;10332;50.208;18.988;2023-08-12T01:58:02;98611.41;;;18.96;72.21
20350;BME280;10332;50.208;18.988;2023-08-12T02:00:29;98615.16;;;18.93;72.56
20350;BME280;10332;50.208;18.988;2023-08-12T02:02:57;98616.44;;;18.89;72.28
20350;BME280;10332;50.208;18.988;2023-08-12T02:05:25;98608.78;;;18.86;72.75
20350;BME280;10332;50.208;18.988;2023-08-12T02:07:53;98616.19;;;18.83;72.50
20350;BME280;10332;50.208;18.988;2023-08-12T02:10:20;98614.00;;;18.78;72.78
20350;BME280;10332;50.208;18.988;2023-08-12T02:12:48;98615.22;;;18.74;72.75
20350;BME280;10332;50.208;18.988;2023-08-12T02:15:15;98613.88;;;18.70;72.89
20350;BME280;10332;50.208;18.988;2023-08-12T02:17:43;98618.44;;;18.68;72.96
20350;BME280;10332;50.208;18.988;2023-08-12T02:20:11;98617.03;;;18.64;73.43
20350;BME280;10332;50.208;18.988;2023-08-12T02:22:38;98621.91;;;18.59;73.57
20350;BME280;10332;50.208;18.988;2023-08-12T02:25:06;98626.50;;;18.57;73.37
20350;BME280;10332;50.208;18.988;2023-08-12T02:27:33;98624.00;;;18.55;73.45
20350;BME280;10332;50.208;18.988;2023-08-12T02:30:01;98622.75;;;18.50;73.51
20350;BME280;10332;50.208;18.988;2023-08-12T02:32:29;98623.75;;;18.49;73.36
20350;BME280;10332;50.208;18.988;2023-08-12T02:34:56;98624.19;;;18.44;73.48
20350;BME280;10332;50.208;18.988;2023-08-12T02:37:23;98627.91;;;18.41;73.97
20350;BME280;10332;50.208;18.988;2023-08-12T02:39:51;98620.13;;;18.40;73.72
20350;BME280;10332;50.208;18.988;2023-08-12T02:42:18;98628.22;;;18.38;73.45
20350;BME280;10332;50.208;18.988;2023-08-12T02:44:46;98621.53;;;18.34;73.71
20350;BME280;10332;50.208;18.988;2023-08-12T02:47:13;98618.19;;;18.32;73.81
20350;BME280;10332;50.208;18.988;2023-08-12T02:49:41;98626.25;;;18.31;74.23
20350;BME280;10332;50.208;18.988;2023-08-12T02:52:08;98617.09;;;18.25;74.10
20350;BME280;10332;50.208;18.988;2023-08-12T02:54:36;98622.66;;;18.22;73.97
20350;BME280;10332;50.208;18.988;2023-08-12T02:57:04;98625.56;;;18.19;74.38
20350;BME280;10332;50.208;18.988;2023-08-12T02:59:31;98611.94;;;18.14;74.30
20350;BME280;10332;50.208;18.988;2023-08-12T03:01:59;98620.59;;;18.16;74.54
20350;BME280;10332;50.208;18.988;2023-08-12T03:04:26;98611.81;;;18.15;73.96
20350;BME280;10332;50.208;18.988;2023-08-12T03:06:54;98617.94;;;18.16;74.14
20350;BME280;10332;50.208;18.988;2023-08-12T03:09:21;98615.28;;;18.16;74.26
20350;BME280;10332;50.208;18.988;2023-08-12T03:11:49;98614.31;;;18.17;74.31
20350;BME280;10332;50.208;18.988;2023-08-12T03:14:17;98612.22;;;18.21;74.21
20350;BME280;10332;50.208;18.988;2023-08-12T03:16:44;98609.44;;;18.22;74.50
20350;BME280;10332;50.208;18.988;2023-08-12T03:19:12;98604.00;;;18.24;73.93
20350;BME280;10332;50.208;18.988;2023-08-12T03:21:39;98597.88;;;18.23;74.09
20350;BME280;10332;50.208;18.988;2023-08-12T03:24:06;98598.84;;;18.22;73.92
20350;BME280;10332;50.208;18.988;2023-08-12T03:26:34;98603.16;;;18.23;73.91
20350;BME280;10332;50.208;18.988;2023-08-12T03:29:01;98603.88;;;18.25;74.05
20350;BME280;10332;50.208;18.988;2023-08-12T03:31:29;98604.00;;;18.24;73.76
20350;BME280;10332;50.208;18.988;2023-08-12T03:33:56;98608.44;;;18.23;73.98
20350;BME280;10332;50.208;18.988;2023-08-12T03:36:24;98610.25;;;18.23;73.99
20350;BME280;10332;50.208;18.988;2023-08-12T03:38:53;98614.31;;;18.17;74.02
20350;BME280;10332;50.208;18.988;2023-08-12T03:41:20;98607.63;;;18.13;74.72
20350;BME280;10332;50.208;18.988;2023-08-12T03:43:48;98601.66;;;18.11;74.81
20350;BME280;10332;50.208;18.988;2023-08-12T03:46:17;98604.16;;;18.12;75.08
20350;BME280;10332;50.208;18.988;2023-08-12T03:48:44;98607.47;;;18.14;75.07
20350;BME280;10332;50.208;18.988;2023-08-12T03:51:12;98607.91;;;18.20;75.11
20350;BME280;10332;50.208;18.988;2023-08-12T03:53:39;98613.03;;;18.21;75.44
20350;BME280;10332;50.208;18.988;2023-08-12T03:56:06;98611.25;;;18.22;75.21
20350;BME280;10332;50.208;18.988;2023-08-12T03:58:34;98611.94;;;18.24;75.43
20350;BME280;10332;50.208;18.988;2023-08-12T04:01:01;98614.47;;;18.25;75.39
20350;BME280;10332;50.208;18.988;2023-08-12T04:03:29;98614.56;;;18.24;75.08
20350;BME280;10332;50.208;18.988;2023-08-12T04:05:57;98611.25;;;18.22;75.20
20350;BME280;10332;50.208;18.988;2023-08-12T04:08:24;98612.50;;;18.18;75.54
20350;BME280;10332;50.208;18.988;2023-08-12T04:10:52;98614.47;;;18.15;75.62
20350;BME280;10332;50.208;18.988;2023-08-12T04:13:20;98612.75;;;18.14;75.42
20350;BME280;10332;50.208;18.988;2023-08-12T04:15:50;98606.38;;;18.17;75.46
20350;BME280;10332;50.208;18.988;2023-08-12T04:18:18;98612.06;;;18.22;74.93
20350;BME280;10332;50.208;18.988;2023-08-12T04:20:51;98603.16;;;18.23;75.04
20350;BME280;10332;50.208;18.988;2023-08-12T04:23:19;98613.63;;;18.25;74.98
20350;BME280;10332;50.208;18.988;2023-08-12T04:25:48;98603.88;;;18.25;74.58
20350;BME280;10332;50.208;18.988;2023-08-12T04:28:18;98612.06;;;18.22;76.99
20350;BME280;10332;50.208;18.988;2023-08-12T04:30:49;98610.97;;;18.25;76.84
20350;BME280;10332;50.208;18.988;2023-08-12T04:33:20;98609.31;;;18.33;75.32
20350;BME280;10332;50.208;18.988;2023-08-12T04:35:47;98609.28;;;18.24;77.28
20350;BME280;10332;50.208;18.988;2023-08-12T04:38:15;98604.44;;;18.29;76.61
20350;BME280;10332;50.208;18.988;2023-08-12T04:40:42;98613.19;;;18.29;76.68
20350;BME280;10332;50.208;18.988;2023-08-12T04:43:10;98601.22;;;18.35;77.06
20350;BME280;10332;50.208;18.988;2023-08-12T04:45:38;98597.03;;;18.32;77.73
20350;BME280;10332;50.208;18.988;2023-08-12T04:48:06;98615.13;;;18.47;76.68
20350;BME280;10332;50.208;18.988;2023-08-12T04:50:36;98616.38;;;18.52;76.71
20350;BME280;10332;50.208;18.988;2023-08-12T04:53:06;98614.81;;;18.50;77.09
20350;BME280;10332;50.208;18.988;2023-08-12T04:55:37;98611.34;;;18.59;76.95
20350;BME280;10332;50.208;18.988;2023-08-12T04:58:05;98616.09;;;18.65;76.54
20350;BME280;10332;50.208;18.988;2023-08-12T05:00:33;98622.75;;;18.69;76.95
20350;BME280;10332;50.208;18.988;2023-08-12T05:03:00;98620.66;;;18.63;78.13
20350;BME280;10332;50.208;18.988;2023-08-12T05:05:28;98618.19;;;18.71;77.67
20350;BME280;10332;50.208;18.988;2023-08-12T05:07:55;98615.69;;;18.69;78.57
20350;BME280;10332;50.208;18.988;2023-08-12T05:10:23;98621.94;;;18.78;77.60
20350;BME280;10332;50.208;18.988;2023-08-12T05:12:50;98621.78;;;18.80;78.24
20350;BME280;10332;50.208;18.988;2023-08-12T05:15:20;98619.66;;;18.83;78.28
20350;BME280;10332;50.208;18.988;2023-08-12T05:17:47;98620.88;;;18.98;78.20
20350;BME280;10332;50.208;18.988;2023-08-12T05:20:15;98613.72;;;19.09;78.24
20350;BME280;10332;50.208;18.988;2023-08-12T05:22:42;98614.97;;;19.14;77.96
20350;BME280;10332;50.208;18.988;2023-08-12T05:25:10;98615.75;;;19.24;77.80
20350;BME280;10332;50.208;18.988;2023-08-12T05:27:37;98616.81;;;19.32;77.62
20350;BME280;10332;50.208;18.988;2023-08-12T05:30:06;98614.28;;;19.40;77.30
20350;BME280;10332;50.208;18.988;2023-08-12T05:32:34;98618.31;;;19.44;77.62
20350;BME280;10332;50.208;18.988;2023-08-12T05:35:01;98624.13;;;19.47;77.58
20350;BME280;10332;50.208;18.988;2023-08-12T05:37:29;98623.28;;;19.56;77.25
20350;BME280;10332;50.208;18.988;2023-08-12T05:39:56;98634.44;;;19.60;77.11
20350;BME280;10332;50.208;18.988;2023-08-12T05:42:23;98620.88;;;19.63;77.00
20350;BME280;10332;50.208;18.988;2023-08-12T05:44:51;98620.06;;;19.63;77.00
20350;BME280;10332;50.208;18.988;2023-08-12T05:47:18;98625.13;;;19.74;76.92
20350;BME280;10332;50.208;18.988;2023-08-12T05:49:46;98624.69;;;19.78;76.54
20350;BME280;10332;50.208;18.988;2023-08-12T05:52:13;98625.22;;;19.82;76.57
20350;BME280;10332;50.208;18.988;2023-08-12T05:54:41;98627.56;;;19.85;76.18
20350;BME280;10332;50.208;18.988;2023-08-12T05:57:09;98628.56;;;19.84;76.28
20350;BME280;10332;50.208;18.988;2023-08-12T05:59:36;98623.25;;;19.84;76.73
20350;BME280;10332;50.208;18.988;2023-08-12T06:02:03;98617.34;;;19.90;76.17
20350;BME280;10332;50.208;18.988;2023-08-12T06:04:31;98616.59;;;19.80;77.12
20350;BME280;10332;50.208;18.988;2023-08-12T06:06:58;98618.00;;;19.74;77.33
20350;BME280;10332;50.208;18.988;2023-08-12T06:09:26;98618.44;;;19.97;76.28
20350;BME280;10332;50.208;18.988;2023-08-12T06:11:53;98621.69;;;20.09;76.04
20350;BME280;10332;50.208;18.988;2023-08-12T06:14:21;98617.19;;;20.09;75.96
20350;BME280;10332;50.208;18.988;2023-08-12T06:16:48;98620.69;;;20.10;75.64
20350;BME280;10332;50.208;18.988;2023-08-12T06:19:16;98618.78;;;20.20;75.18
20350;BME280;10332;50.208;18.988;2023-08-12T06:21:43;98627.97;;;20.26;75.07
20350;BME280;10332;50.208;18.988;2023-08-12T06:24:11;98629.31;;;20.30;74.93
20350;BME280;10332;50.208;18.988;2023-08-12T06:26:38;98617.78;;;20.39;74.83
20350;BME280;10332;50.208;18.988;2023-08-12T06:29:06;98623.78;;;20.41;74.92
20350;BME280;10332;50.208;18.988;2023-08-12T06:31:33;98615.81;;;20.41;75.43
20350;BME280;10332;50.208;18.988;2023-08-12T06:34:01;98617.44;;;20.52;74.69
20350;BME280;10332;50.208;18.988;2023-08-12T06:36:29;98616.19;;;20.64;74.63
20350;BME280;10332;50.208;18.988;2023-08-12T06:38:56;98608.78;;;20.76;74.21
20350;BME280;10332;50.208;18.988;2023-08-12T06:41:24;98616.66;;;20.85;73.67
20350;BME280;10332;50.208;18.988;2023-08-12T06:43:51;98614.09;;;20.76;73.15
20350;BME280;10332;50.208;18.988;2023-08-12T06:46:19;98619.16;;;20.87;73.11
20350;BME280;10332;50.208;18.988;2023-08-12T06:48:46;98615.75;;;21.03;72.51
20350;BME280;10332;50.208;18.988;2023-08-12T06:51:14;98619.28;;;21.11;71.93
20350;BME280;10332;50.208;18.988;2023-08-12T06:53:42;98624.84;;;21.26;71.54
20350;BME280;10332;50.208;18.988;2023-08-12T06:56:09;98615.94;;;21.35;71.08
20350;BME280;10332;50.208;18.988;2023-08-12T06:58:37;98610.84;;;21.42;70.82
20350;BME280;10332;50.208;18.988;2023-08-12T07:01:04;98609.03;;;21.50;70.44
20350;BME280;10332;50.208;18.988;2023-08-12T07:03:32;98611.22;;;21.63;70.14
20350;BME280;10332;50.208;18.988;2023-08-12T07:06:00;98615.25;;;21.67;70.05
20350;BME280;10332;50.208;18.988;2023-08-12T07:08:27;98611.28;;;21.79;69.90
20350;BME280;10332;50.208;18.988;2023-08-12T07:10:54;98613.59;;;21.82;69.97
20350;BME280;10332;50.208;18.988;2023-08-12T07:13:22;98613.78;;;21.89;69.59
20350;BME280;10332;50.208;18.988;2023-08-12T07:15:49;98618.63;;;22.02;68.86
20350;BME280;10332;50.208;18.988;2023-08-12T07:18:17;98616.44;;;21.97;68.95
20350;BME280;10332;50.208;18.988;2023-08-12T07:20:44;98614.16;;;22.10;67.48
20350;BME280;10332;50.208;18.988;2023-08-12T07:23:12;98611.38;;;22.20;67.46
20350;BME280;10332;50.208;18.988;2023-08-12T07:25:39;98614.00;;;22.36;66.83
20350;BME280;10332;50.208;18.988;2023-08-12T07:28:07;98612.03;;;22.47;66.05
20350;BME280;10332;50.208;18.988;2023-08-12T07:30:35;98611.53;;;22.43;64.84
20350;BME280;10332;50.208;18.988;2023-08-12T07:33:04;98610.69;;;22.67;65.56
20350;BME280;10332;50.208;18.988;2023-08-12T07:35:31;98609.31;;;22.71;64.46
20350;BME280;10332;50.208;18.988;2023-08-12T07:37:59;98606.84;;;22.86;63.92
20350;BME280;10332;50.208;18.988;2023-08-12T07:40:27;98602.00;;;22.89;63.39
20350;BME280;10332;50.208;18.988;2023-08-12T07:42:54;98602.63;;;23.00;62.87
20350;BME280;10332;50.208;18.988;2023-08-12T07:45:22;98600.31;;;23.05;63.16
20350;BME280;10332;50.208;18.988;2023-08-12T07:47:50;98591.09;;;23.15;63.18
20350;BME280;10332;50.208;18.988;2023-08-12T07:50:18;98600.34;;;22.88;60.13
20350;BME280;10332;50.208;18.988;2023-08-12T07:52:46;98594.13;;;23.12;61.41
20350;BME280;10332;50.208;18.988;2023-08-12T07:55:13;98596.16;;;23.41;61.36
20350;BME280;10332;50.208;18.988;2023-08-12T07:57:41;98598.09;;;23.56;61.06
20350;BME280;10332;50.208;18.988;2023-08-12T08:00:08;98592.41;;;23.67;60.87
20350;BME280;10332;50.208;18.988;2023-08-12T08:02:37;98589.31;;;23.78;60.56
20350;BME280;10332;50.208;18.988;2023-08-12T08:05:06;98587.25;;;23.88;60.71
20350;BME280;10332;50.208;18.988;2023-08-12T08:07:34;98587.19;;;23.96;60.20
20350;BME280;10332;50.208;18.988;2023-08-12T08:10:02;98583.34;;;23.99;58.98
20350;BME280;10332;50.208;18.988;2023-08-12T08:12:30;98593.13;;;24.06;58.36
20350;BME280;10332;50.208;18.988;2023-08-12T08:14:57;98588.47;;;24.09;57.80
20350;BME280;10332;50.208;18.988;2023-08-12T08:17:24;98605.06;;;24.19;57.31
20350;BME280;10332;50.208;18.988;2023-08-12T08:19:52;98600.94;;;24.31;56.42
20350;BME280;10332;50.208;18.988;2023-08-12T08:22:20;98589.16;;;24.25;56.78
20350;BME280;10332;50.208;18.988;2023-08-12T08:24:47;98594.84;;;24.22;56.52
20350;BME280;10332;50.208;18.988;2023-08-12T08:27:15;98602.22;;;24.43;55.62
20350;BME280;10332;50.208;18.988;2023-08-12T08:29:42;98591.63;;;24.50;55.26
20350;BME280;10332;50.208;18.988;2023-08-12T08:32:10;98598.38;;;24.60;55.47
20350;BME280;10332;50.208;18.988;2023-08-12T08:34:37;98588.84;;;24.81;55.33
20350;BME280;10332;50.208;18.988;2023-08-12T08:37:05;98596.03;;;24.95;55.39
20350;BME280;10332;50.208;18.988;2023-08-12T08:39:32;98590.91;;;25.08;54.80
20350;BME280;10332;50.208;18.988;2023-08-12T08:42:02;98591.16;;;25.13;55.00
20350;BME280;10332;50.208;18.988;2023-08-12T08:44:30;98590.16;;;25.29;54.97
20350;BME280;10332;50.208;18.988;2023-08-12T08:47:01;98590.78;;;25.46;54.09
20350;BME280;10332;50.208;18.988;2023-08-12T08:49:30;98584.03;;;25.50;54.11
20350;BME280;10332;50.208;18.988;2023-08-12T08:51:59;98593.69;;;25.66;53.89
20350;BME280;10332;50.208;18.988;2023-08-12T08:54:27;98588.06;;;25.75;52.65
20350;BME280;10332;50.208;18.988;2023-08-12T08:56:55;98591.00;;;25.81;52.58
20350;BME280;10332;50.208;18.988;2023-08-12T08:59:32;98593.19;;;25.92;52.35
20350;BME280;10332;50.208;18.988;2023-08-12T09:02:00;98584.13;;;25.93;52.22
20350;BME280;10332;50.208;18.988;2023-08-12T09:04:29;98589.31;;;26.16;52.66
20350;BME280;10332;50.208;18.988;2023-08-12T09:06:59;98587.31;;;26.24;51.87
20350;BME280;10332;50.208;18.988;2023-08-12T09:09:27;98574.69;;;26.40;50.82
20350;BME280;10332;50.208;18.988;2023-08-12T09:11:55;98577.84;;;26.50;50.80
20350;BME280;10332;50.208;18.988;2023-08-12T09:14:23;98577.38;;;26.40;49.03
20350;BME280;10332;50.208;18.988;2023-08-12T09:16:51;98580.81;;;26.12;49.75
20350;BME280;10332;50.208;18.988;2023-08-12T09:19:18;98573.41;;;26.36;48.49
20350;BME280;10332;50.208;18.988;2023-08-12T09:21:53;98575.03;;;26.58;48.09
20350;BME280;10332;50.208;18.988;2023-08-12T09:24:25;98572.56;;;27.19;48.09
20350;BME280;10332;50.208;18.988;2023-08-12T09:26:56;98566.09;;;28.69;45.93
20350;BME280;10332;50.208;18.988;2023-08-12T09:29:29;98558.09;;;30.35;43.63
20350;BME280;10332;50.208;18.988;2023-08-12T09:32:20;98570.94;;;32.46;38.47
20350;BME280;10332;50.208;18.988;2023-08-12T09:34:50;98568.50;;;34.29;35.28
20350;BME280;10332;50.208;18.988;2023-08-12T09:37:21;98574.00;;;37.47;31.39
20350;BME280;10332;50.208;18.988;2023-08-12T09:39:51;98581.59;;;39.64;28.52
20350;BME280;10332;50.208;18.988;2023-08-12T09:42:19;98572.28;;;42.58;25.64
20350;BME280;10332;50.208;18.988;2023-08-12T09:44:47;98579.56;;;45.38;22.85
20350;BME280;10332;50.208;18.988;2023-08-12T09:47:14;98585.16;;;48.27;21.24
20350;BME280;10332;50.208;18.988;2023-08-12T09:49:42;98586.69;;;51.12;18.91
20350;BME280;10332;50.208;18.988;2023-08-12T09:52:09;98600.53;;;53.47;15.94
20350;BME280;10332;50.208;18.988;2023-08-12T09:54:37;98595.00;;;53.51;15.18
20350;BME280;10332;50.208;18.988;2023-08-12T09:57:10;98586.59;;;55.37;15.32
20350;BME280;10332;50.208;18.988;2023-08-12T09:59:40;98589.88;;;55.53;13.15
20350;BME280;10332;50.208;18.988;2023-08-12T10:02:15;98575.28;;;54.37;13.91
20350;BME280;10332;50.208;18.988;2023-08-12T10:04:50;98576.69;;;56.91;12.99
20350;BME280;10332;50.208;18.988;2023-08-12T10:07:21;98584.81;;;58.08;11.90
20350;BME280;10332;50.208;18.988;2023-08-12T10:09:50;98577.44;;;59.32;11.80
20350;BME280;10332;50.208;18.988;2023-08-12T10:12:18;98576.16;;;60.05;11.65
20350;BME280;10332;50.208;18.988;2023-08-12T10:14:47;98581.28;;;60.41;11.56
20350;BME280;10332;50.208;18.988;2023-08-12T10:17:16;98566.22;;;57.27;11.21
20350;BME280;10332;50.208;18.988;2023-08-12T10:20:05;98567.94;;;59.84;11.84
20350;BME280;10332;50.208;18.988;2023-08-12T10:22:39;98564.13;;;59.67;12.34
20350;BME280;10332;50.208;18.988;2023-08-12T10:25:08;98567.50;;;59.17;13.04
20350;BME280;10332;50.208;18.988;2023-08-12T10:27:38;98550.16;;;56.56;12.52
20350;BME280;10332;50.208;18.988;2023-08-12T10:30:06;98554.59;;;56.60;13.16
20350;BME280;10332;50.208;18.988;2023-08-12T10:32:36;98546.53;;;56.52;12.81
20350;BME280;10332;50.208;18.988;2023-08-12T10:35:04;98550.34;;;55.69;12.59
20350;BME280;10332;50.208;18.988;2023-08-12T10:37:35;98544.94;;;53.12;13.49
20350;BME280;10332;50.208;18.988;2023-08-12T10:40:04;98528.72;;;50.98;14.68
20350;BME280;10332;50.208;18.988;2023-08-12T10:42:43;98535.50;;;52.97;14.53
20350;BME280;10332;50.208;18.988;2023-08-12T10:45:14;98530.03;;;53.04;14.76
20350;BME280;10332;50.208;18.988;2023-08-12T10:47:53;98519.94;;;52.96;15.00
20350;BME280;10332;50.208;18.988;2023-08-12T10:50:36;98525.97;;;53.25;15.23
20350;BME280;10332;50.208;18.988;2023-08-12T10:53:28;98521.19;;;49.79;14.58
20350;BME280;10332;50.208;18.988;2023-08-12T10:56:03;98499.88;;;47.58;16.42
20350;BME280;10332;50.208;18.988;2023-08-12T10:58:44;98493.81;;;46.85;17.20
20350;BME280;10332;50.208;18.988;2023-08-12T11:01:19;98496.44;;;48.85;17.14
20350;BME280;10332;50.208;18.988;2023-08-12T11:03:48;98490.09;;;49.09;17.02
20350;BME280;10332;50.208;18.988;2023-08-12T11:06:16;98491.72;;;47.11;17.86
20350;BME280;10332;50.208;18.988;2023-08-12T11:08:51;98480.00;;;44.99;18.92
20350;BME280;10332;50.208;18.988;2023-08-12T11:11:24;98478.41;;;44.05;20.05
20350;BME280;10332;50.208;18.988;2023-08-12T11:13:58;98475.22;;;42.76;21.21
20350;BME280;10332;50.208;18.988;2023-08-12T11:16:36;98466.41;;;41.67;21.81
20350;BME280;10332;50.208;18.988;2023-08-12T11:19:05;98466.72;;;39.98;23.68
20350;BME280;10332;50.208;18.988;2023-08-12T11:21:36;98461.16;;;38.60;24.28
20350;BME280;10332;50.208;18.988;2023-08-12T11:24:04;98458.53;;;38.30;24.78
20350;BME280;10332;50.208;18.988;2023-08-12T11:26:32;98460.63;;;37.31;25.38
20350;BME280;10332;50.208;18.988;2023-08-12T11:29:00;98463.38;;;36.31;26.33
20350;BME280;10332;50.208;18.988;2023-08-12T11:31:27;98457.34;;;35.60;27.83
20350;BME280;10332;50.208;18.988;2023-08-12T11:33:55;98455.81;;;35.20;28.13
20350;BME280;10332;50.208;18.988;2023-08-12T11:36:22;98447.03;;;35.13;27.95
20350;BME280;10332;50.208;18.988;2023-08-12T11:38:50;98450.00;;;34.68;28.80
20350;BME280;10332;50.208;18.988;2023-08-12T11:41:18;98443.50;;;34.30;29.98
20350;BME280;10332;50.208;18.988;2023-08-12T11:43:45;98448.63;;;33.93;30.74
20350;BME280;10332;50.208;18.988;2023-08-12T11:46:15;98442.22;;;33.99;30.48
20350;BME280;10332;50.208;18.988;2023-08-12T11:48:43;98432.50;;;33.86;31.01
20350;BME280;10332;50.208;18.988;2023-08-12T11:51:11;98442.50;;;33.69;30.69
20350;BME280;10332;50.208;18.988;2023-08-12T11:53:39;98439.44;;;33.20;31.54
20350;BME280;10332;50.208;18.988;2023-08-12T11:56:06;98440.41;;;33.14;31.44
20350;BME280;10332;50.208;18.988;2023-08-12T11:58:37;98438.66;;;32.56;32.20
20350;BME280;10332;50.208;18.988;2023-08-12T12:01:19;98426.75;;;32.69;32.14
20350;BME280;10332;50.208;18.988;2023-08-12T12:03:54;98431.47;;;32.73;32.37
20350;BME280;10332;50.208;18.988;2023-08-12T12:06:36;98435.16;;;32.32;32.40
20350;BME280;10332;50.208;18.988;2023-08-12T12:09:07;98409.97;;;32.55;32.20
20350;BME280;10332;50.208;18.988;2023-08-12T12:11:38;98414.19;;;32.63;33.06
20350;BME280;10332;50.208;18.988;2023-08-12T12:14:08;98406.19;;;32.68;32.87
20350;BME280;10332;50.208;18.988;2023-08-12T12:16:45;98405.09;;;32.69;33.24
20350;BME280;10332;50.208;18.988;2023-08-12T12:19:18;98390.63;;;32.75;32.99
20350;BME280;10332;50.208;18.988;2023-08-12T12:21:52;98402.69;;;32.44;33.00
20350;BME280;10332;50.208;18.988;2023-08-12T12:24:20;98397.31;;;32.32;33.33
20350;BME280;10332;50.208;18.988;2023-08-12T12:26:49;98397.44;;;32.37;33.54
20350;BME280;10332;50.208;18.988;2023-08-12T12:29:16;98386.50;;;32.32;33.34
20350;BME280;10332;50.208;18.988;2023-08-12T12:31:44;98386.13;;;32.40;34.12
20350;BME280;10332;50.208;18.988;2023-08-12T12:34:11;98390.34;;;32.25;33.82
20350;BME280;10332;50.208;18.988;2023-08-12T12:36:41;98388.25;;;31.80;34.52
20350;BME280;10332;50.208;18.988;2023-08-12T12:39:09;98386.91;;;31.71;34.27
20350;BME280;10332;50.208;18.988;2023-08-12T12:41:36;98383.47;;;31.52;34.56
20350;BME280;10332;50.208;18.988;2023-08-12T12:44:04;98381.69;;;31.76;34.14
20350;BME280;10332;50.208;18.988;2023-08-12T12:46:32;98382.97;;;31.85;33.53
20350;BME280;10332;50.208;18.988;2023-08-12T12:49:00;98380.88;;;31.45;33.73
20350;BME280;10332;50.208;18.988;2023-08-12T12:51:28;98374.03;;;31.73;33.71
20350;BME280;10332;50.208;18.988;2023-08-12T12:53:56;98373.47;;;31.82;34.01
20350;BME280;10332;50.208;18.988;2023-08-12T12:56:24;98367.25;;;31.94;34.10
20350;BME280;10332;50.208;18.988;2023-08-12T12:58:51;98365.81;;;31.79;34.34